createdAt,value
2018-09-17T00:01:51.655Z,14.83
2018-09-17T00:04:20.729Z,11.37
2018-09-17T00:06:49.867Z,11.73
2018-09-17T00:09:18.973Z,13.00
2018-09-17T00:11:47.944Z,12.07
2018-09-17T00:14:16.944Z,8.57
2018-09-17T00:16:45.953Z,11.07
2018-09-17T00:19:14.945Z,12.70
2018-09-17T00:21:43.923Z,17.23
2018-09-17T00:24:12.925Z,13.13
2018-09-17T00:26:42.025Z,12.37
2018-09-17T00:29:11.121Z,11.00
2018-09-17T00:31:40.097Z,11.67
2018-09-17T00:34:09.539Z,12.57
2018-09-17T00:36:39.626Z,11.67
2018-09-17T00:39:09.862Z,19.50
2018-09-17T00:41:38.827Z,13.37
2018-09-17T00:44:07.833Z,12.57
2018-09-17T00:46:36.946Z,11.07
2018-09-17T00:49:06.010Z,10.00
2018-09-17T00:51:34.991Z,9.70
2018-09-17T00:54:04.086Z,9.90
2018-09-17T00:56:33.230Z,14.10
2018-09-17T00:59:02.250Z,16.53
2018-09-17T01:01:31.269Z,10.93
2018-09-17T01:04:00.255Z,10.20
2018-09-17T01:06:29.250Z,13.57
2018-09-17T01:08:58.225Z,14.50
2018-09-17T01:11:27.253Z,12.80
2018-09-17T01:13:56.254Z,12.00
2018-09-17T01:16:25.235Z,13.67
2018-09-17T01:18:54.314Z,15.80
2018-09-17T01:21:23.329Z,12.93
2018-09-17T01:23:52.289Z,10.93
2018-09-17T01:26:21.258Z,12.57
2018-09-17T01:28:50.238Z,12.83
2018-09-17T01:31:19.263Z,16.23
2018-09-17T01:33:48.253Z,15.47
2018-09-17T01:36:17.218Z,13.00
2018-09-17T01:38:46.219Z,14.67
2018-09-17T01:41:15.275Z,10.47
2018-09-17T01:43:44.357Z,14.80
2018-09-17T01:46:13.439Z,15.10
2018-09-17T01:48:42.524Z,19.87
2018-09-17T01:51:11.562Z,12.20
2018-09-17T01:53:40.547Z,13.43
2018-09-17T01:56:09.628Z,17.80
2018-09-17T01:58:38.626Z,17.77
2018-09-17T02:01:07.673Z,16.60
2018-09-17T02:03:36.642Z,11.23
2018-09-17T02:06:05.795Z,15.30
2018-09-17T02:08:34.865Z,16.40
2018-09-17T02:11:03.872Z,15.63
2018-09-17T02:13:32.942Z,17.80
2018-09-17T02:16:01.955Z,13.20
2018-09-17T02:18:30.965Z,11.30
2018-09-17T02:20:59.932Z,14.00
2018-09-17T02:23:28.981Z,18.20
2018-09-17T02:25:58.073Z,18.03
2018-09-17T02:28:27.463Z,16.87
2018-09-17T02:30:56.469Z,14.17
2018-09-17T02:33:25.837Z,14.80
2018-09-17T02:35:54.824Z,14.43
2018-09-17T02:38:23.869Z,14.17
2018-09-17T02:40:52.866Z,14.33
2018-09-17T02:43:21.831Z,14.13
2018-09-17T02:45:50.818Z,16.63
2018-09-17T02:48:19.914Z,14.90
2018-09-17T02:50:48.930Z,16.50
2018-09-17T02:53:18.037Z,21.37
2018-09-17T02:55:47.013Z,20.30
2018-09-17T02:58:16.054Z,27.40
2018-09-17T03:00:45.013Z,21.37
2018-09-17T03:03:13.972Z,16.50
2018-09-17T03:05:42.953Z,23.00
2018-09-17T03:08:11.970Z,15.27
2018-09-17T03:10:41.010Z,16.17
2018-09-17T03:13:09.994Z,18.63
2018-09-17T03:15:48.060Z,15.33
2018-09-17T03:18:22.151Z,21.83
2018-09-17T03:20:51.150Z,16.60
2018-09-17T03:23:20.267Z,16.30
2018-09-17T03:25:49.567Z,14.93
2018-09-17T03:28:18.580Z,22.27
2018-09-17T03:30:47.570Z,19.90
2018-09-17T03:33:16.593Z,17.67
2018-09-17T03:35:45.566Z,22.97
2018-09-17T03:38:42.889Z,19.20
2018-09-17T03:41:12.569Z,19.63
2018-09-17T03:43:42.832Z,25.30
2018-09-17T03:46:11.938Z,22.13
2018-09-17T03:48:41.450Z,16.40
2018-09-17T03:51:11.079Z,17.60
2018-09-17T03:53:40.441Z,22.40
2018-09-17T03:56:09.427Z,19.57
2018-09-17T03:58:38.444Z,21.37
2018-09-17T04:01:07.602Z,19.50
2018-09-17T04:03:36.599Z,25.00
2018-09-17T04:06:05.615Z,25.93
2018-09-17T04:08:34.570Z,25.63
2018-09-17T04:11:03.598Z,26.73
2018-09-17T04:13:32.595Z,20.27
2018-09-17T04:16:01.630Z,26.93
2018-09-17T04:18:30.691Z,29.73
2018-09-17T04:20:59.665Z,28.30
2018-09-17T04:23:32.512Z,33.60
2018-09-17T04:26:01.838Z,25.17
2018-09-17T04:28:30.893Z,28.23
2018-09-17T04:30:59.970Z,29.97
2018-09-17T04:33:31.596Z,21.10
2018-09-17T04:36:00.742Z,29.23
2018-09-17T04:38:29.728Z,27.97
2018-09-17T04:40:58.923Z,28.33
2018-09-17T04:43:27.916Z,27.20
2018-09-17T04:45:56.960Z,23.10
2018-09-17T04:48:25.945Z,30.10
2018-09-17T04:50:54.938Z,25.50
2018-09-17T04:53:23.999Z,21.20
2018-09-17T04:55:53.082Z,25.53
2018-09-17T04:58:22.289Z,28.27
2018-09-17T05:00:51.440Z,24.03
2018-09-17T05:03:20.535Z,24.47
2018-09-17T05:05:49.678Z,36.90
2018-09-17T05:08:18.845Z,28.67
2018-09-17T05:10:47.877Z,33.93
2018-09-17T05:13:16.887Z,21.60
2018-09-17T05:15:45.870Z,31.30
2018-09-17T05:18:14.949Z,31.07
2018-09-17T05:20:44.035Z,31.93
2018-09-17T05:23:12.953Z,29.73
2018-09-17T05:25:41.922Z,33.50
2018-09-17T05:28:10.929Z,27.57
2018-09-17T05:30:40.028Z,29.70
2018-09-17T05:33:09.013Z,28.23
2018-09-17T05:35:38.138Z,31.27
2018-09-17T05:38:07.156Z,25.93
2018-09-17T05:40:36.149Z,29.70
2018-09-17T05:43:05.197Z,31.40
2018-09-17T05:45:34.235Z,42.60
2018-09-17T05:48:03.393Z,31.07
2018-09-17T05:50:32.361Z,32.57
2018-09-17T05:53:01.377Z,30.37
2018-09-17T05:55:30.353Z,39.23
2018-09-17T05:57:59.352Z,31.80
2018-09-17T06:00:28.341Z,28.50
2018-09-17T06:02:58.002Z,25.27
2018-09-17T06:05:27.241Z,41.30
2018-09-17T06:07:56.299Z,41.83
2018-09-17T06:10:25.288Z,31.27
2018-09-17T06:12:54.279Z,31.10
2018-09-17T06:15:23.610Z,32.63
2018-09-17T06:17:52.626Z,40.00
2018-09-17T06:20:21.618Z,32.33
2018-09-17T06:22:50.862Z,43.77
2018-09-17T06:25:20.026Z,35.83
2018-09-17T06:27:49.186Z,28.23
2018-09-17T06:30:18.328Z,35.10
2018-09-17T06:32:47.516Z,27.00
2018-09-17T06:35:16.641Z,36.33
2018-09-17T06:37:45.847Z,32.57
2018-09-17T06:40:15.064Z,27.60
2018-09-17T06:42:44.053Z,28.33
2018-09-17T06:45:13.142Z,37.10
2018-09-17T06:47:42.219Z,27.70
2018-09-17T06:50:11.294Z,26.27
2018-09-17T06:52:40.459Z,28.00
2018-09-17T06:55:09.496Z,28.80
2018-09-17T06:57:38.626Z,31.00
2018-09-17T07:00:08.865Z,38.50
2018-09-17T07:02:37.930Z,34.47
2018-09-17T07:05:07.041Z,38.53
2018-09-17T07:07:36.070Z,30.77
2018-09-17T07:10:05.439Z,31.67
2018-09-17T07:12:34.475Z,32.40
2018-09-17T07:15:03.602Z,28.90
2018-09-17T07:17:32.728Z,27.47
2018-09-17T07:20:01.798Z,29.70
2018-09-17T07:22:30.854Z,27.70
2018-09-17T07:24:59.852Z,32.70
2018-09-17T07:27:28.891Z,28.60
2018-09-17T07:29:58.011Z,28.33
2018-09-17T07:32:27.062Z,31.60
2018-09-17T07:34:56.174Z,27.33
2018-09-17T07:37:25.256Z,31.33
2018-09-17T07:39:54.233Z,32.93
2018-09-17T07:42:23.253Z,33.43
2018-09-17T07:44:52.241Z,29.20
2018-09-17T07:47:21.242Z,42.17
2018-09-17T07:49:50.329Z,25.87
2018-09-17T07:52:19.581Z,26.60
2018-09-17T07:54:48.602Z,30.47
2018-09-17T07:57:17.582Z,36.30
2018-09-17T07:59:46.601Z,23.23
2018-09-17T08:02:15.592Z,33.43
2018-09-17T08:04:44.679Z,26.60
2018-09-17T08:07:13.715Z,28.73
2018-09-17T08:09:42.749Z,24.63
2018-09-17T08:12:11.810Z,28.20
2018-09-17T08:14:40.859Z,32.80
2018-09-17T08:17:09.885Z,25.83
2018-09-17T08:19:38.971Z,27.83
2018-09-17T08:22:07.864Z,29.07
2018-09-17T08:24:36.984Z,22.53
2018-09-17T08:27:06.147Z,36.67
2018-09-17T08:29:35.266Z,25.40
2018-09-17T08:32:04.335Z,26.77
2018-09-17T08:34:33.535Z,25.67
2018-09-17T08:37:02.609Z,25.10
2018-09-17T08:39:31.590Z,24.27
2018-09-17T08:42:00.636Z,29.27
2018-09-17T08:44:29.626Z,22.77
2018-09-17T08:46:58.620Z,26.03
2018-09-17T08:49:27.669Z,24.50
2018-09-17T08:51:56.676Z,26.53
2018-09-17T08:54:25.770Z,22.93
2018-09-17T08:56:59.535Z,29.30
2018-09-17T08:59:33.973Z,24.53
2018-09-17T09:02:15.808Z,22.30
2018-09-17T09:04:50.350Z,28.17
2018-09-17T09:07:24.956Z,25.33
2018-09-17T09:09:58.169Z,26.77
2018-09-17T09:12:31.481Z,17.13
2018-09-17T09:15:05.965Z,18.07
2018-09-17T09:17:34.954Z,15.73
2018-09-17T09:20:04.002Z,24.33
2018-09-17T09:22:33.037Z,14.83
2018-09-17T09:25:02.041Z,20.80
2018-09-17T09:27:31.120Z,16.50
2018-09-17T09:30:00.130Z,20.83
2018-09-17T09:32:29.095Z,14.87
2018-09-17T09:34:58.102Z,14.70
2018-09-17T09:37:27.269Z,28.40
2018-09-17T09:39:57.308Z,16.40
2018-09-17T09:42:26.300Z,14.53
2018-09-17T09:44:55.581Z,11.80
2018-09-17T09:47:24.599Z,11.97
2018-09-17T09:49:53.590Z,16.47
2018-09-17T09:52:22.654Z,11.73
2018-09-17T09:54:51.677Z,21.37
2018-09-17T09:57:20.729Z,26.37
2018-09-17T09:59:49.807Z,16.87
2018-09-17T10:02:24.261Z,17.20
2018-09-17T10:04:53.351Z,12.73
2018-09-17T10:07:22.387Z,16.07
2018-09-17T10:09:56.722Z,10.03
2018-09-17T10:12:30.996Z,15.50
2018-09-17T10:15:05.479Z,16.50
2018-09-17T10:17:39.862Z,14.87
2018-09-17T10:20:08.899Z,20.20
2018-09-17T10:22:37.985Z,12.80
2018-09-17T10:25:07.182Z,11.30
2018-09-17T10:27:36.289Z,10.73
2018-09-17T10:30:05.825Z,11.23
2018-09-17T10:32:34.834Z,16.07
2018-09-17T10:35:04.957Z,7.70
2018-09-17T10:37:33.981Z,11.90
2018-09-17T10:40:02.998Z,9.97
2018-09-17T10:42:31.986Z,6.80
2018-09-17T10:45:01.042Z,7.63
2018-09-17T10:47:30.038Z,6.37
2018-09-17T10:49:59.036Z,7.90
2018-09-17T10:52:28.034Z,9.17
2018-09-17T10:54:57.123Z,7.00
2018-09-17T10:57:26.105Z,12.73
2018-09-17T10:59:55.434Z,16.43
2018-09-17T11:02:24.435Z,11.73
2018-09-17T11:04:53.549Z,8.70
2018-09-17T11:07:22.622Z,13.10
2018-09-17T11:09:51.582Z,6.80
2018-09-17T11:12:20.585Z,15.87
2018-09-17T11:14:49.630Z,9.13
2018-09-17T11:17:18.804Z,4.77
2018-09-17T11:19:47.799Z,6.70
2018-09-17T11:22:16.804Z,6.60
2018-09-17T11:24:45.869Z,7.80
2018-09-17T11:27:14.832Z,11.80
2018-09-17T11:29:43.893Z,9.90
2018-09-17T11:32:13.004Z,9.70
2018-09-17T11:34:42.068Z,8.90
2018-09-17T11:37:11.019Z,20.30
2018-09-17T11:39:40.082Z,4.50
2018-09-17T11:42:09.160Z,5.70
2018-09-17T11:44:38.380Z,8.47
2018-09-17T11:47:07.412Z,5.43
2018-09-17T11:49:36.393Z,9.63
2018-09-17T11:52:05.366Z,5.63
2018-09-17T11:54:34.333Z,8.20
2018-09-17T11:57:03.361Z,5.00
2018-09-17T11:59:32.450Z,6.90
2018-09-17T12:02:04.968Z,6.57
2018-09-17T12:04:39.415Z,3.70
2018-09-17T12:07:13.932Z,5.87
2018-09-17T12:09:43.024Z,7.07
2018-09-17T12:12:13.020Z,6.73
2018-09-17T12:14:42.057Z,10.23
2018-09-17T12:17:11.081Z,4.70
2018-09-17T12:19:40.126Z,4.50
2018-09-17T12:22:09.115Z,18.60
2018-09-17T12:24:38.094Z,3.83
2018-09-17T12:27:07.162Z,7.77
2018-09-17T12:29:36.208Z,7.23
2018-09-17T12:32:05.317Z,8.40
2018-09-17T12:34:34.560Z,5.50
2018-09-17T12:37:03.593Z,6.80
2018-09-17T12:39:32.671Z,6.50
2018-09-17T12:42:01.665Z,5.47
2018-09-17T12:44:30.681Z,10.10
2018-09-17T12:46:59.746Z,9.93
2018-09-17T12:49:29.947Z,6.97
2018-09-17T12:51:58.945Z,6.97
2018-09-17T12:54:27.965Z,6.10
2018-09-17T12:56:57.014Z,4.80
2018-09-17T12:59:26.077Z,8.53
2018-09-17T13:01:55.179Z,8.33
2018-09-17T13:04:24.251Z,11.73
2018-09-17T13:06:53.339Z,7.30
2018-09-17T13:09:22.356Z,7.77
2018-09-17T13:11:51.352Z,7.00
2018-09-17T13:14:20.286Z,8.97
2018-09-17T13:16:49.250Z,6.93
2018-09-17T13:19:18.332Z,11.27
2018-09-17T13:21:47.265Z,8.73
2018-09-17T13:24:16.330Z,10.23
2018-09-17T13:26:45.421Z,6.53
2018-09-17T13:29:14.449Z,8.63
2018-09-17T13:31:43.518Z,9.53
2018-09-17T13:34:12.486Z,8.23
2018-09-17T13:36:41.554Z,14.50
2018-09-17T13:39:10.479Z,10.60
2018-09-17T13:41:39.535Z,8.33
2018-09-17T13:44:08.580Z,7.30
2018-09-17T13:46:37.626Z,7.90
2018-09-17T13:49:06.634Z,9.23
2018-09-17T13:51:35.568Z,7.40
2018-09-17T13:54:04.644Z,10.17
2018-09-17T13:56:33.635Z,4.53
2018-09-17T13:59:02.628Z,7.53
2018-09-17T14:01:31.593Z,9.87
2018-09-17T14:04:00.887Z,8.77
2018-09-17T14:06:29.891Z,14.00
2018-09-17T14:08:59.348Z,8.73
2018-09-17T14:11:28.281Z,10.57
2018-09-17T14:13:57.433Z,6.23
2018-09-17T14:16:31.753Z,19.20
2018-09-17T14:19:00.887Z,10.10
2018-09-17T14:21:30.292Z,11.20
2018-09-17T14:23:59.887Z,8.87
2018-09-17T14:26:29.350Z,9.87
2018-09-17T14:28:58.860Z,13.10
2018-09-17T14:31:33.201Z,11.53
2018-09-17T14:34:02.445Z,8.20
2018-09-17T14:36:31.767Z,10.87
2018-09-17T14:39:00.771Z,6.03
2018-09-17T14:41:29.853Z,4.87
2018-09-17T14:43:58.846Z,8.73
2018-09-17T14:46:27.861Z,10.73
2018-09-17T14:48:56.801Z,10.63
2018-09-17T14:51:25.932Z,7.13
2018-09-17T14:53:55.015Z,13.20
2018-09-17T14:56:24.018Z,9.67
2018-09-17T14:58:53.064Z,5.90
2018-09-17T15:01:22.126Z,9.80
2018-09-17T15:03:51.012Z,11.93
2018-09-17T15:06:20.001Z,5.93
2018-09-17T15:08:49.122Z,12.10
2018-09-17T15:11:18.097Z,4.70
2018-09-17T15:13:47.213Z,6.97
2018-09-17T15:16:16.194Z,6.90
2018-09-17T15:18:45.193Z,12.43
2018-09-17T15:21:14.244Z,4.70
2018-09-17T15:23:43.370Z,11.93
2018-09-17T15:26:12.392Z,5.97
2018-09-17T15:28:41.326Z,4.57
2018-09-17T15:31:10.301Z,4.60
2018-09-17T15:33:39.249Z,10.83
2018-09-17T15:36:08.319Z,9.63
2018-09-17T15:38:37.394Z,9.30
2018-09-17T15:41:06.434Z,12.60
2018-09-17T15:43:35.722Z,9.03
2018-09-17T15:46:04.834Z,6.70
2018-09-17T15:48:33.747Z,10.80
2018-09-17T15:51:02.869Z,7.63
2018-09-17T15:53:31.810Z,5.60
2018-09-17T15:56:01.031Z,5.73
2018-09-17T15:58:29.983Z,8.03
2018-09-17T16:00:58.977Z,9.33
2018-09-17T16:03:27.926Z,7.67
2018-09-17T16:05:56.961Z,10.50
2018-09-17T16:08:26.068Z,10.60
2018-09-17T16:10:55.184Z,7.80
2018-09-17T16:13:24.180Z,6.53
2018-09-17T16:15:53.202Z,6.93
2018-09-17T16:18:22.246Z,4.30
2018-09-17T16:20:51.251Z,10.13
2018-09-17T16:23:20.361Z,10.27
2018-09-17T16:25:49.447Z,6.87
2018-09-17T16:28:18.544Z,10.43
2018-09-17T16:30:47.573Z,14.20
2018-09-17T16:33:16.647Z,3.97
2018-09-17T16:35:47.649Z,16.43
2018-09-17T16:38:16.661Z,7.10
2018-09-17T16:40:45.994Z,8.63
2018-09-17T16:43:14.957Z,7.03
2018-09-17T16:45:43.910Z,6.20
2018-09-17T16:48:12.976Z,13.00
2018-09-17T16:50:42.026Z,14.50
2018-09-17T16:53:11.089Z,13.33
2018-09-17T16:55:40.011Z,5.73
2018-09-17T16:58:09.110Z,8.40
2018-09-17T17:00:38.056Z,9.27
2018-09-17T17:03:07.101Z,10.93
2018-09-17T17:05:36.173Z,13.77
2018-09-17T17:08:05.261Z,10.50
2018-09-17T17:10:34.274Z,28.60
2018-09-17T17:13:03.309Z,11.40
2018-09-17T17:15:32.337Z,25.60
2018-09-17T17:18:01.483Z,15.60
2018-09-17T17:20:30.448Z,6.77
2018-09-17T17:22:59.462Z,12.90
2018-09-17T17:25:28.441Z,21.20
2018-09-17T17:27:57.565Z,17.30
2018-09-17T17:30:26.601Z,13.20
2018-09-17T17:32:55.626Z,8.30
2018-09-17T17:35:24.607Z,11.77
2018-09-17T17:37:53.665Z,12.00
2018-09-17T17:40:22.792Z,16.63
2018-09-17T17:42:51.679Z,18.57
2018-09-17T17:45:20.658Z,17.20
2018-09-17T17:47:49.768Z,12.53
2018-09-17T17:50:19.801Z,17.73
2018-09-17T17:52:48.940Z,19.30
2018-09-17T17:55:18.020Z,14.40
2018-09-17T17:57:47.303Z,13.90
2018-09-17T18:00:16.526Z,12.77
2018-09-17T18:02:45.627Z,18.40
2018-09-17T18:05:14.910Z,12.50
2018-09-17T18:07:44.024Z,16.00
2018-09-17T18:10:13.075Z,17.10
2018-09-17T18:12:42.238Z,24.00
2018-09-17T18:15:11.348Z,10.30
2018-09-17T18:17:40.261Z,7.13
2018-09-17T18:20:09.333Z,10.03
2018-09-17T18:22:38.325Z,20.00
2018-09-17T18:25:07.354Z,11.93
2018-09-17T18:27:36.349Z,17.73
2018-09-17T18:30:05.694Z,16.17
2018-09-17T18:32:35.556Z,15.87
2018-09-17T18:35:05.747Z,10.50
2018-09-17T18:37:34.827Z,12.63
2018-09-17T18:40:03.922Z,22.30
2018-09-17T18:42:33.046Z,13.70
2018-09-17T18:45:02.074Z,19.40
2018-09-17T18:47:30.938Z,16.03
2018-09-17T18:49:59.986Z,13.67
2018-09-17T18:52:29.054Z,15.10
2018-09-17T18:54:58.066Z,9.00
2018-09-17T18:57:27.101Z,10.70
2018-09-17T18:59:56.042Z,11.63
2018-09-17T19:02:24.958Z,16.67
2018-09-17T19:04:54.054Z,11.87
2018-09-17T19:07:23.415Z,11.93
2018-09-17T19:09:52.426Z,20.97
2018-09-17T19:12:21.739Z,13.27
2018-09-17T19:14:55.959Z,7.23
2018-09-17T19:17:30.110Z,16.80
2018-09-17T19:20:00.637Z,21.47
2018-09-17T19:22:34.875Z,23.23
2018-09-17T19:25:03.925Z,21.73
2018-09-17T19:27:38.413Z,21.47
2018-09-17T19:30:07.638Z,11.10
2018-09-17T19:32:36.626Z,21.50
2018-09-17T19:35:05.731Z,9.40
2018-09-17T19:37:40.034Z,12.57
2018-09-17T19:40:18.624Z,15.60
2018-09-17T19:42:48.365Z,15.00
2018-09-17T19:45:22.672Z,21.47
2018-09-17T19:47:52.318Z,11.37
2018-09-17T19:50:26.901Z,17.47
2018-09-17T19:52:55.993Z,12.47
2018-09-17T19:55:25.060Z,13.10
2018-09-17T19:57:59.404Z,17.30
2018-09-17T20:00:28.642Z,15.17
2018-09-17T20:02:57.557Z,20.63
2018-09-17T20:05:31.853Z,13.70
2018-09-17T20:08:00.888Z,20.50
2018-09-17T20:10:29.897Z,12.40
2018-09-17T20:12:58.853Z,19.60
2018-09-17T20:15:27.938Z,12.67
2018-09-17T20:17:57.031Z,21.40
2018-09-17T20:20:26.151Z,15.20
2018-09-17T20:22:55.169Z,15.77
2018-09-17T20:25:24.178Z,18.53
2018-09-17T20:27:53.210Z,11.50
2018-09-17T20:30:22.153Z,20.87
2018-09-17T20:32:51.337Z,12.13
2018-09-17T20:35:20.607Z,17.73
2018-09-17T20:37:49.592Z,10.60
2018-09-17T20:40:18.563Z,9.40
2018-09-17T20:42:47.526Z,11.07
2018-09-17T20:45:16.552Z,11.50
2018-09-17T20:47:45.502Z,12.60
2018-09-17T20:50:14.506Z,13.60
2018-09-17T20:52:43.742Z,14.60
2018-09-17T20:55:12.783Z,16.23
2018-09-17T20:57:41.734Z,12.90
2018-09-17T21:00:10.800Z,12.33
2018-09-17T21:02:39.805Z,15.70
2018-09-17T21:05:10.920Z,10.47
2018-09-17T21:07:40.980Z,15.17
2018-09-17T21:10:10.991Z,15.43
2018-09-17T21:12:40.125Z,12.27
2018-09-17T21:15:09.135Z,8.67
2018-09-17T21:17:38.193Z,19.37
2018-09-17T21:20:07.281Z,19.30
2018-09-17T21:22:36.609Z,11.17
2018-09-17T21:25:05.665Z,10.10
2018-09-17T21:27:34.617Z,10.90
2018-09-17T21:30:03.724Z,8.63
2018-09-17T21:32:32.662Z,12.63
2018-09-17T21:35:01.763Z,9.13
2018-09-17T21:37:30.791Z,17.57
2018-09-17T21:39:59.810Z,15.13
2018-09-17T21:42:29.826Z,14.70
2018-09-17T21:44:58.859Z,15.17
2018-09-17T21:47:27.858Z,22.43
2018-09-17T21:49:56.911Z,11.50
2018-09-17T21:52:25.935Z,16.17
2018-09-17T21:54:54.901Z,18.70
2018-09-17T21:57:23.863Z,15.60
2018-09-17T21:59:53.065Z,17.63
2018-09-17T22:02:22.073Z,11.10
2018-09-17T22:04:50.991Z,13.23
2018-09-17T22:07:21.142Z,15.73
2018-09-17T22:09:50.175Z,17.07
2018-09-17T22:12:19.154Z,9.20
2018-09-17T22:14:48.142Z,19.87
2018-09-17T22:17:17.188Z,11.90
2018-09-17T22:19:46.244Z,11.90
2018-09-17T22:22:15.272Z,9.93
2018-09-17T22:24:44.331Z,12.77
2018-09-17T22:27:13.254Z,18.23
2018-09-17T22:29:42.272Z,16.10
2018-09-17T22:32:11.570Z,13.97
2018-09-17T22:34:40.650Z,10.50
2018-09-17T22:37:09.658Z,18.17
2018-09-17T22:39:38.652Z,17.60
2018-09-17T22:42:07.757Z,19.60
2018-09-17T22:44:36.742Z,12.17
2018-09-17T22:47:05.901Z,12.73
2018-09-17T22:49:34.927Z,13.43
2018-09-17T22:52:03.994Z,12.93
2018-09-17T22:54:32.961Z,11.60
2018-09-17T22:57:01.927Z,13.30
2018-09-17T22:59:30.869Z,11.60
2018-09-17T23:01:59.865Z,22.33
2018-09-17T23:04:28.834Z,16.63
2018-09-17T23:06:57.795Z,17.73
2018-09-17T23:09:26.769Z,17.70
2018-09-17T23:11:55.733Z,15.70
2018-09-17T23:14:24.723Z,11.53
2018-09-17T23:16:53.666Z,13.77
2018-09-17T23:19:22.964Z,10.80
2018-09-17T23:21:51.942Z,12.93
2018-09-17T23:24:20.922Z,17.23
2018-09-17T23:26:49.889Z,22.53
2018-09-17T23:29:18.849Z,15.90
2018-09-17T23:31:47.915Z,11.10
2018-09-17T23:34:16.920Z,16.83
2018-09-17T23:36:45.909Z,15.23
2018-09-17T23:39:14.891Z,12.40
2018-09-17T23:41:43.899Z,12.53
2018-09-17T23:44:12.904Z,13.83
2018-09-17T23:46:41.990Z,15.27
2018-09-17T23:49:10.986Z,11.97
2018-09-17T23:51:39.965Z,18.17
2018-09-17T23:54:09.056Z,10.37
2018-09-17T23:56:38.152Z,16.10
2018-09-17T23:59:07.116Z,25.00
